Time;durP1;ratioP1;P1;durP2;ratioP2;P2;SDS_P1;SDS_P2;PMS_P1;PMS_P2;Temp;Humidity;BMP_temperature;BMP_pressure;BME280_temperature;BME280_humidity;BME280_pressure;Samples;Min_cycle;Max_cycle;Signal;HPM_P1;HPM_P2
2023/05/06 00:01:35;;;;;;;8.43;5.10;;;;;15.40;98669.00;;;;5055014;28;20045;-64
2023/05/06 00:04:01;;;;;;;8.25;5.85;;;;;15.40;98675.00;;;;5054781;28;20041;-64
2023/05/06 00:06:28;;;;;;;7.45;6.18;;;;;15.40;98661.00;;;;5053363;28;20041;-64
2023/05/06 00:08:55;;;;;;;7.10;6.20;;;;;15.30;98657.00;;;;5053294;28;20056;-64
2023/05/06 00:11:21;;;;;;;8.27;6.53;;;;;15.30;98654.00;;;;5053611;28;20045;-64
2023/05/06 00:13:48;;;;;;;7.40;6.70;;;;;15.30;98649.00;;;;5054704;28;20394;-64
2023/05/06 00:16:14;;;;;;;10.32;6.55;;;;;15.30;98643.00;;;;5053097;28;20053;-64
2023/05/06 00:18:41;;;;;;;7.85;6.88;;;;;15.30;98657.00;;;;5051984;28;20453;-64
2023/05/06 00:21:08;;;;;;;7.57;6.50;;;;;15.40;98657.00;;;;5052548;28;20057;-64
2023/05/06 00:23:34;;;;;;;8.15;7.32;;;;;15.30;98655.00;;;;5036703;28;20102;-64
2023/05/06 00:26:01;;;;;;;9.95;6.63;;;;;15.30;98655.00;;;;5054231;28;20136;-64
2023/05/06 00:28:27;;;;;;;8.80;7.13;;;;;15.20;98653.00;;;;5054137;28;20041;-64
2023/05/06 00:30:54;;;;;;;7.72;6.93;;;;;15.30;98651.00;;;;5052558;28;20406;-64
2023/05/06 00:33:20;;;;;;;10.10;6.47;;;;;15.30;98653.00;;;;5052726;28;20044;-64
2023/05/06 00:35:47;;;;;;;9.13;6.68;;;;;15.30;98648.00;;;;5053968;28;20490;-64
2023/05/06 00:38:14;;;;;;;10.30;6.47;;;;;15.30;98650.00;;;;5053302;28;20059;-64
2023/05/06 00:40:41;;;;;;;11.85;7.63;;;;;15.30;98645.00;;;;5055883;28;20040;-65
2023/05/06 00:43:08;;;;;;;10.15;7.68;;;;;15.30;98647.00;;;;5056535;28;20524;-64
2023/05/06 00:45:35;;;;;;;10.15;8.20;;;;;15.20;98643.00;;;;5056585;28;20415;-64
2023/05/06 00:48:03;;;;;;;9.60;7.18;;;;;15.20;98648.00;;;;5057051;28;20044;-63
2023/05/06 00:50:32;;;;;;;10.13;7.75;;;;;15.20;98650.00;;;;5054424;28;20071;-64
2023/05/06 00:53:01;;;;;;;15.05;9.65;;;;;15.20;98647.00;;;;5056383;28;20131;-65
2023/05/06 00:55:29;;;;;;;11.95;7.45;;;;;15.10;98641.00;;;;5055525;28;20048;-65
2023/05/06 00:57:56;;;;;;;9.10;7.25;;;;;15.10;98654.00;;;;5056080;28;20041;-65
2023/05/06 01:00:22;;;;;;;10.23;8.27;;;;;15.10;98653.00;;;;5055209;28;20045;-64
2023/05/06 01:02:50;;;;;;;11.55;7.90;;;;;15.20;98648.00;;;;5053631;28;20413;-64
2023/05/06 01:05:20;;;;;;;10.88;8.15;;;;;15.20;98642.00;;;;5039371;28;20053;-65
2023/05/06 01:08:11;;;;;;;10.15;8.98;;;;;15.20;98642.00;;;;5054178;28;20128;-67
2023/05/06 01:10:59;;;;;;;10.23;8.00;;;;;15.10;98640.00;;;;5053406;28;20059;-67
2023/05/06 01:13:34;;;;;;;12.27;9.60;;;;;15.10;98646.00;;;;5052554;28;20049;-66
2023/05/06 01:16:03;;;;;;;12.07;9.00;;;;;15.00;98636.00;;;;5052977;28;20429;-67
2023/05/06 01:18:31;;;;;;;15.10;10.32;;;;;15.00;98642.00;;;;5052838;28;20128;-66
2023/05/06 01:20:59;;;;;;;10.98;9.05;;;;;15.00;98641.00;;;;5052023;28;20033;-66
2023/05/06 01:23:25;;;;;;;12.20;10.18;;;;;15.00;98646.00;;;;5053286;28;20053;-66
2023/05/06 01:25:52;;;;;;;12.98;9.90;;;;;15.00;98655.00;;;;5052032;28;20094;-66
2023/05/06 01:28:18;;;;;;;13.68;10.38;;;;;14.90;98646.00;;;;5035539;28;20041;-66
2023/05/06 01:31:01;;;;;;;16.02;10.95;;;;;14.90;98644.00;;;;5050597;28;20643;-66
2023/05/06 01:33:52;;;;;;;11.93;9.40;;;;;14.90;98637.00;;;;5053012;28;20116;-66
2023/05/06 01:36:24;;;;;;;10.25;6.75;;;;;14.70;98642.00;;;;5048940;28;20048;-65
2023/05/06 01:39:08;;;;;;;11.77;7.97;;;;;14.60;98642.00;;;;5051255;28;20428;-66
2023/05/06 01:41:37;;;;;;;8.52;7.00;;;;;14.60;98633.00;;;;5035084;28;20052;-66
2023/05/06 01:44:05;;;;;;;7.97;5.95;;;;;14.40;98638.00;;;;5052568;28;20043;-67
2023/05/06 01:46:34;;;;;;;8.07;6.32;;;;;14.40;98641.00;;;;5051406;28;20116;-66
2023/05/06 01:49:04;;;;;;;9.38;6.00;;;;;14.40;98643.00;;;;5052280;28;20052;-66
2023/05/06 01:51:32;;;;;;;9.30;5.82;;;;;14.40;98639.00;;;;5052727;28;20037;-67
2023/05/06 01:54:01;;;;;;;7.13;5.80;;;;;14.30;98639.00;;;;5052342;28;20037;-67
2023/05/06 01:56:29;;;;;;;6.78;5.07;;;;;14.30;98645.00;;;;5051193;28;20056;-66
2023/05/06 01:58:57;;;;;;;7.82;4.85;;;;;14.20;98645.00;;;;5050805;28;20063;-66
2023/05/06 02:01:25;;;;;;;6.43;5.05;;;;;14.20;98633.00;;;;5051438;28;20045;-67
2023/05/06 02:03:51;;;;;;;5.95;4.53;;;;;14.10;98643.00;;;;5052196;28;20494;-64
2023/05/06 02:06:19;;;;;;;7.78;4.72;;;;;14.10;98635.00;;;;5051543;28;20486;-64
2023/05/06 02:08:46;;;;;;;7.47;4.85;;;;;14.10;98641.00;;;;5051236;28;20048;-64
2023/05/06 02:11:17;;;;;;;4.85;4.45;;;;;14.10;98635.00;;;;5050995;28;20052;-63
2023/05/06 02:13:46;;;;;;;8.52;4.70;;;;;14.10;98628.00;;;;5050928;28;20056;-63
2023/05/06 02:16:12;;;;;;;5.70;4.55;;;;;14.10;98622.00;;;;5051167;28;20157;-63
2023/05/06 02:18:40;;;;;;;7.80;4.78;;;;;14.10;98617.00;;;;5050145;28;20132;-63
2023/05/06 02:21:08;;;;;;;6.78;4.47;;;;;14.10;98629.00;;;;5050782;28;20729;-63
2023/05/06 02:23:35;;;;;;;7.40;4.60;;;;;14.10;98628.00;;;;5050754;28;20126;-63
2023/05/06 02:26:01;;;;;;;6.15;4.50;;;;;14.10;98633.00;;;;5051031;28;20049;-63
2023/05/06 02:28:28;;;;;;;6.00;4.03;;;;;14.10;98631.00;;;;5050823;28;20448;-63
2023/05/06 02:30:57;;;;;;;7.93;4.35;;;;;14.10;98628.00;;;;5050480;28;20056;-63
2023/05/06 02:33:24;;;;;;;5.93;4.13;;;;;13.90;98613.00;;;;5050896;28;20041;-63
2023/05/06 02:35:51;;;;;;;6.30;4.68;;;;;13.70;98624.00;;;;5052285;28;20056;-63
2023/05/06 02:38:18;;;;;;;5.95;3.85;;;;;13.60;98617.00;;;;5051072;28;20052;-64
2023/05/06 02:40:45;;;;;;;5.13;3.97;;;;;13.60;98611.00;;;;5050456;28;20045;-63
2023/05/06 02:43:11;;;;;;;5.18;4.68;;;;;13.60;98612.00;;;;5050545;28;20529;-64
2023/05/06 02:45:38;;;;;;;7.10;5.45;;;;;13.70;98618.00;;;;5050504;28;20052;-63
2023/05/06 02:48:05;;;;;;;6.07;4.85;;;;;13.70;98615.00;;;;5050462;28;20037;-63
2023/05/06 02:50:34;;;;;;;10.10;5.03;;;;;13.80;98613.00;;;;5050462;28;20677;-63
2023/05/06 02:53:00;;;;;;;6.95;5.32;;;;;13.80;98619.00;;;;5033951;28;20053;-63
2023/05/06 02:55:27;;;;;;;5.53;4.38;;;;;13.80;98613.00;;;;5051835;28;20064;-63
2023/05/06 02:57:53;;;;;;;5.82;4.35;;;;;13.60;98609.00;;;;5050512;28;20041;-64
2023/05/06 03:00:20;;;;;;;6.05;4.25;;;;;13.50;98606.00;;;;5033755;28;20049;-63
2023/05/06 03:02:47;;;;;;;6.57;4.65;;;;;13.50;98605.00;;;;5050394;28;20052;-63
2023/05/06 03:05:13;;;;;;;7.57;6.68;;;;;13.40;98601.00;;;;5051688;28;20494;-65
2023/05/06 03:07:40;;;;;;;8.23;6.53;;;;;13.20;98604.00;;;;5034045;28;20048;-64
2023/05/06 03:10:07;;;;;;;9.63;6.80;;;;;13.20;98604.00;;;;5033711;28;20045;-63
2023/05/06 03:12:36;;;;;;;7.85;6.45;;;;;13.20;98597.00;;;;5034325;28;20140;-64
2023/05/06 03:15:03;;;;;;;7.45;5.63;;;;;13.10;98595.00;;;;5050309;28;20060;-64
2023/05/06 03:17:30;;;;;;;9.02;6.57;;;;;13.00;98604.00;;;;5050437;28;20045;-64
2023/05/06 03:19:57;;;;;;;10.35;6.97;;;;;13.00;98603.00;;;;5050156;28;20049;-64
2023/05/06 03:22:23;;;;;;;12.15;7.10;;;;;12.90;98608.00;;;;5051760;28;20095;-63
2023/05/06 03:24:50;;;;;;;8.43;6.40;;;;;12.80;98602.00;;;;5050243;28;20497;-64
2023/05/06 03:27:17;;;;;;;8.07;6.40;;;;;12.70;98603.00;;;;5034272;28;20076;-64
2023/05/06 03:29:48;;;;;;;7.18;5.93;;;;;12.70;98597.00;;;;5054815;28;20036;-63
2023/05/06 03:32:16;;;;;;;8.20;6.38;;;;;12.80;98608.00;;;;5054415;28;20053;-63
2023/05/06 03:34:43;;;;;;;8.93;6.43;;;;;12.70;98607.00;;;;5054890;28;20068;-63
2023/05/06 03:37:14;;;;;;;8.98;6.20;;;;;12.70;98599.00;;;;5050247;28;20087;-63
2023/05/06 03:39:47;;;;;;;10.30;6.30;;;;;12.60;98609.00;;;;5034734;28;20556;-64
2023/05/06 03:42:15;;;;;;;8.38;6.10;;;;;12.70;98605.00;;;;5050512;28;20103;-63
2023/05/06 03:44:43;;;;;;;6.97;5.50;;;;;12.80;98612.00;;;;5050522;28;20103;-63
2023/05/06 03:47:10;;;;;;;10.07;7.03;;;;;12.80;98604.00;;;;5050939;28;20494;-63
2023/05/06 03:49:36;;;;;;;7.75;4.88;;;;;12.60;98607.00;;;;5050340;28;20490;-63
2023/05/06 03:52:04;;;;;;;7.22;5.00;;;;;12.70;98616.00;;;;5050272;28;20041;-63
2023/05/06 03:54:31;;;;;;;6.93;5.30;;;;;12.70;98610.00;;;;5059686;28;20049;-64
2023/05/06 03:56:57;;;;;;;7.63;5.82;;;;;12.80;98608.00;;;;5048810;28;20521;-63
2023/05/06 03:59:24;;;;;;;9.40;5.90;;;;;12.90;98601.00;;;;5063678;28;20536;-64
2023/05/06 04:01:52;;;;;;;7.63;5.35;;;;;12.90;98615.00;;;;5068414;28;20049;-64
2023/05/06 04:04:18;;;;;;;7.90;5.35;;;;;13.00;98619.00;;;;5062475;28;20501;-64
2023/05/06 04:06:45;;;;;;;23.65;16.13;;;;;13.00;98618.00;;;;5053360;28;20059;-64
2023/05/06 04:09:12;;;;;;;7.32;6.03;;;;;12.90;98615.00;;;;5054559;28;20045;-64
2023/05/06 04:11:39;;;;;;;9.13;6.55;;;;;12.90;98620.00;;;;5037047;28;20048;-64
2023/05/06 04:14:08;;;;;;;7.75;6.13;;;;;12.90;98617.00;;;;5054375;28;20066;-64
2023/05/06 04:16:35;;;;;;;9.05;6.85;;;;;13.00;98624.00;;;;5053292;28;20044;-63
2023/05/06 04:19:03;;;;;;;9.77;7.35;;;;;13.10;98617.00;;;;5052693;28;20116;-64
2023/05/06 04:21:33;;;;;;;9.10;6.90;;;;;13.10;98616.00;;;;5053346;28;20041;-63
2023/05/06 04:24:04;;;;;;;8.80;6.43;;;;;13.10;98622.00;;;;5037727;28;20060;-64
2023/05/06 04:26:35;;;;;;;7.32;6.30;;;;;13.10;98626.00;;;;5037365;28;20048;-64
2023/05/06 04:29:02;;;;;;;8.68;6.18;;;;;13.00;98618.00;;;;5052990;28;20037;-64
2023/05/06 04:31:33;;;;;;;12.68;7.88;;;;;12.90;98631.00;;;;5054294;28;20079;-65
2023/05/06 04:34:03;;;;;;;9.88;7.10;;;;;13.10;98636.00;;;;5038333;28;20049;-63
2023/05/06 04:36:30;;;;;;;9.80;6.78;;;;;13.10;98633.00;;;;5054959;28;20044;-64
2023/05/06 04:39:10;;;;;;;8.77;6.55;;;;;13.00;98632.00;;;;5038491;28;20048;-64
2023/05/06 04:41:38;;;;;;;8.50;5.72;;;;;13.00;98642.00;;;;5053081;28;20147;-64
2023/05/06 04:44:06;;;;;;;8.13;5.70;;;;;13.00;98648.00;;;;5036802;28;20068;-64
2023/05/06 04:46:34;;;;;;;6.90;5.70;;;;;13.00;98643.00;;;;5036900;28;20048;-65
2023/05/06 04:49:02;;;;;;;9.23;6.40;;;;;13.10;98638.00;;;;5054116;28;20059;-65
2023/05/06 04:51:30;;;;;;;9.98;6.65;;;;;13.30;98643.00;;;;5072676;28;20080;-66
2023/05/06 04:53:58;;;;;;;13.10;7.28;;;;;13.40;98633.00;;;;5057159;28;20072;-63
2023/05/06 04:56:25;;;;;;;9.80;7.05;;;;;13.60;98640.00;;;;5071575;28;20052;-64
2023/05/06 04:58:51;;;;;;;9.43;7.20;;;;;13.70;98639.00;;;;5061732;28;20045;-64
2023/05/06 05:01:18;;;;;;;9.20;7.28;;;;;13.80;98653.00;;;;5062576;28;20405;-64
2023/05/06 05:03:45;;;;;;;12.45;9.18;;;;;13.90;98650.00;;;;5062699;28;20500;-65
2023/05/06 05:06:12;;;;;;;10.35;7.15;;;;;13.80;98645.00;;;;5045347;28;20053;-65
2023/05/06 05:08:39;;;;;;;7.70;6.90;;;;;13.90;98656.00;;;;5061263;28;20055;-65
2023/05/06 05:11:07;;;;;;;11.40;6.80;;;;;14.00;98656.00;;;;5057894;28;20094;-65
2023/05/06 05:13:34;;;;;;;11.65;8.55;;;;;13.90;98651.00;;;;5043686;28;20112;-65
2023/05/06 05:16:01;;;;;;;11.73;8.18;;;;;13.90;98656.00;;;;5058906;28;20045;-65
2023/05/06 05:18:31;;;;;;;13.70;9.65;;;;;13.80;98659.00;;;;5052684;28;20072;-65
2023/05/06 05:21:04;;;;;;;12.57;8.77;;;;;13.80;98656.00;;;;5052227;28;20049;-66
2023/05/06 05:23:32;;;;;;;12.35;8.90;;;;;13.80;98652.00;;;;5052053;28;20415;-65
2023/05/06 05:25:59;;;;;;;13.70;8.23;;;;;14.00;98663.00;;;;5035417;28;20103;-65
2023/05/06 05:28:26;;;;;;;10.02;7.75;;;;;14.10;98659.00;;;;5052222;28;20095;-66
2023/05/06 05:30:54;;;;;;;11.20;8.82;;;;;14.10;98664.00;;;;5052123;28;20109;-66
2023/05/06 05:33:21;;;;;;;12.63;9.70;;;;;14.30;98656.00;;;;5052252;28;20041;-65
2023/05/06 05:35:47;;;;;;;12.13;9.30;;;;;14.60;98659.00;;;;5036074;28;20045;-66
2023/05/06 05:38:15;;;;;;;12.77;10.63;;;;;14.80;98663.00;;;;5052062;28;20041;-66
2023/05/06 05:40:42;;;;;;;12.98;9.55;;;;;14.90;98666.00;;;;5035385;28;20053;-66
2023/05/06 05:43:09;;;;;;;14.27;10.05;;;;;15.10;98656.00;;;;5035311;28;20140;-66
2023/05/06 05:45:38;;;;;;;15.82;10.23;;;;;15.10;98663.00;;;;5052246;28;20056;-67
2023/05/06 05:48:07;;;;;;;15.27;10.00;;;;;15.20;98670.00;;;;5035911;28;20391;-66
2023/05/06 05:50:34;;;;;;;13.48;10.32;;;;;15.20;98674.00;;;;5051666;28;20041;-66
2023/05/06 05:53:01;;;;;;;20.63;10.77;;;;;15.20;98665.00;;;;5035757;28;20049;-66
2023/05/06 05:55:28;;;;;;;22.42;11.48;;;;;15.30;98673.00;;;;5035558;28;20136;-66
2023/05/06 05:57:55;;;;;;;18.38;11.30;;;;;15.30;98673.00;;;;5035319;28;20045;-67
2023/05/06 06:00:23;;;;;;;18.90;11.82;;;;;15.50;98665.00;;;;5035175;28;20051;-67
2023/05/06 06:02:57;;;;;;;19.60;12.60;;;;;15.50;98673.00;;;;5051356;28;20045;-64
2023/05/06 06:05:23;;;;;;;27.88;15.45;;;;;15.40;98667.00;;;;5051138;28;20502;-64
2023/05/06 06:07:50;;;;;;;19.58;13.20;;;;;15.40;98668.00;;;;5051416;28;20049;-64
2023/05/06 06:10:17;;;;;;;21.77;13.73;;;;;15.60;98676.00;;;;5051162;28;20045;-64
2023/05/06 06:12:44;;;;;;;21.65;12.50;;;;;15.60;98679.00;;;;5034971;28;20049;-64
2023/05/06 06:15:15;;;;;;;20.92;12.60;;;;;15.70;98678.00;;;;5035881;28;20564;-64
2023/05/06 06:17:43;;;;;;;19.77;13.35;;;;;15.80;98690.00;;;;5034758;28;20144;-65
2023/05/06 06:20:12;;;;;;;20.52;14.02;;;;;15.90;98688.00;;;;5033982;28;20132;-64
2023/05/06 06:22:38;;;;;;;20.67;13.73;;;;;16.10;98689.00;;;;5051392;28;20489;-63
2023/05/06 06:25:06;;;;;;;23.52;14.45;;;;;16.00;98694.00;;;;5035018;28;20041;-64
2023/05/06 06:27:34;;;;;;;19.58;13.73;;;;;15.70;98692.00;;;;5052373;28;20041;-64
2023/05/06 06:30:02;;;;;;;20.70;13.40;;;;;15.70;98694.00;;;;5050734;28;20068;-64
2023/05/06 06:32:29;;;;;;;24.10;15.13;;;;;15.60;98690.00;;;;5034486;28;20472;-64
2023/05/06 06:34:55;;;;;;;21.33;13.38;;;;;15.50;98695.00;;;;5052668;28;20060;-64
2023/05/06 06:37:22;;;;;;;22.33;14.38;;;;;15.70;98698.00;;;;5051120;28;20537;-64
2023/05/06 06:39:48;;;;;;;20.88;12.95;;;;;15.80;98703.00;;;;5052045;28;20487;-64
2023/05/06 06:42:15;;;;;;;24.02;14.05;;;;;16.00;98703.00;;;;5034501;28;20052;-64
2023/05/06 06:44:49;;;;;;;21.05;13.35;;;;;16.10;98694.00;;;;5035652;28;20049;-64
2023/05/06 06:47:16;;;;;;;23.50;13.57;;;;;16.10;98699.00;;;;5050865;28;20073;-64
2023/05/06 06:49:42;;;;;;;23.83;14.38;;;;;16.10;98691.00;;;;5050705;28;20098;-64
2023/05/06 06:52:09;;;;;;;19.75;12.50;;;;;16.20;98698.00;;;;5050915;28;20045;-64
2023/05/06 06:54:39;;;;;;;22.25;13.25;;;;;16.20;98698.00;;;;5051058;28;20053;-64
2023/05/06 06:57:05;;;;;;;22.38;13.98;;;;;16.30;98695.00;;;;5050837;28;20048;-65
2023/05/06 06:59:32;;;;;;;22.40;14.82;;;;;16.50;98691.00;;;;5050417;28;20457;-64
2023/05/06 07:01:59;;;;;;;26.92;14.93;;;;;16.70;98690.00;;;;5050320;28;20099;-64
2023/05/06 07:04:25;;;;;;;23.20;14.80;;;;;16.70;98699.00;;;;5050610;28;20048;-64
2023/05/06 07:06:52;;;;;;;24.55;16.13;;;;;16.70;98691.00;;;;5050745;28;20052;-64
2023/05/06 07:09:18;;;;;;;21.73;14.63;;;;;16.80;98684.00;;;;5033666;28;20048;-64
2023/05/06 07:11:45;;;;;;;26.02;15.13;;;;;16.90;98690.00;;;;5050422;28;20045;-64
2023/05/06 07:14:11;;;;;;;26.45;15.27;;;;;17.20;98685.00;;;;5050509;28;20098;-64
2023/05/06 07:16:38;;;;;;;23.08;14.93;;;;;17.50;98688.00;;;;5050359;28;20053;-64
2023/05/06 07:19:04;;;;;;;24.63;15.48;;;;;17.50;98693.00;;;;5049962;28;20073;-64
2023/05/06 07:21:31;;;;;;;25.52;15.23;;;;;17.50;98702.00;;;;5051622;28;20052;-64
2023/05/06 07:23:58;;;;;;;21.15;14.52;;;;;17.60;98696.00;;;;5050218;28;20502;-65
2023/05/06 07:26:25;;;;;;;22.92;14.32;;;;;17.70;98699.00;;;;5050158;28;20049;-64
2023/05/06 07:28:52;;;;;;;22.35;14.40;;;;;17.80;98703.00;;;;5052131;28;20055;-64
2023/05/06 07:31:19;;;;;;;22.05;14.60;;;;;18.00;98704.00;;;;5037676;28;20049;-64
2023/05/06 07:33:47;;;;;;;28.55;14.50;;;;;17.80;98701.00;;;;5055444;28;20555;-64
2023/05/06 07:36:13;;;;;;;20.48;14.55;;;;;17.80;98705.00;;;;5054750;28;20386;-64
2023/05/06 07:38:40;;;;;;;22.33;14.07;;;;;17.90;98707.00;;;;5054463;28;20048;-64
2023/05/06 07:41:07;;;;;;;23.38;14.20;;;;;18.00;98705.00;;;;5037606;28;20531;-63
2023/05/06 07:43:34;;;;;;;23.55;14.52;;;;;18.00;98707.00;;;;5053787;28;20049;-64
2023/05/06 07:46:03;;;;;;;21.27;14.63;;;;;18.10;98708.00;;;;5054386;28;20063;-64
2023/05/06 07:48:31;;;;;;;19.45;13.57;;;;;18.20;98711.00;;;;5054157;28;20556;-63
2023/05/06 07:50:59;;;;;;;20.38;14.23;;;;;18.20;98711.00;;;;5054036;28;20051;-65
2023/05/06 07:53:26;;;;;;;21.23;13.32;;;;;18.30;98707.00;;;;5053611;28;20049;-65
2023/05/06 07:55:55;;;;;;;17.52;13.25;;;;;18.40;98715.00;;;;5053808;28;20068;-64
2023/05/06 07:58:22;;;;;;;22.67;13.05;;;;;18.50;98708.00;;;;5054293;28;20044;-65
2023/05/06 08:00:48;;;;;;;18.13;13.10;;;;;18.60;98704.00;;;;5054521;28;20091;-64
2023/05/06 08:03:15;;;;;;;19.55;12.57;;;;;18.80;98709.00;;;;5054187;28;20095;-65
2023/05/06 08:05:42;;;;;;;15.23;8.77;;;;;18.90;98718.00;;;;5053972;28;20410;-65
2023/05/06 08:08:09;;;;;;;18.65;11.95;;;;;18.90;98711.00;;;;5060988;28;20048;-65
2023/05/06 08:10:36;;;;;;;15.68;10.60;;;;;19.00;98708.00;;;;5070447;28;20051;-65
2023/05/06 08:13:02;;;;;;;15.30;11.82;;;;;19.20;98704.00;;;;5064833;28;20048;-65
2023/05/06 08:15:29;;;;;;;16.48;12.20;;;;;19.30;98709.00;;;;5054590;28;20411;-65
2023/05/06 08:17:56;;;;;;;8.35;6.70;;;;;19.30;98705.00;;;;5054474;28;20048;-65
2023/05/06 08:20:32;;;;;;;11.20;6.70;;;;;19.40;98711.00;;;;5037757;28;20405;-65
2023/05/06 08:22:59;;;;;;;7.63;5.07;;;;;19.50;98709.00;;;;5053284;28;20045;-67
2023/05/06 08:25:26;;;;;;;11.55;7.45;;;;;19.60;98709.00;;;;5053384;28;20518;-68
2023/05/06 08:27:55;;;;;;;9.95;6.90;;;;;19.70;98715.00;;;;5053230;28;20041;-65
2023/05/06 08:30:21;;;;;;;11.10;7.10;;;;;19.90;98714.00;;;;5054256;28;20041;-65
2023/05/06 08:32:48;;;;;;;13.43;9.48;;;;;19.90;98715.00;;;;5054286;28;20049;-64
2023/05/06 08:35:14;;;;;;;9.10;7.03;;;;;20.00;98713.00;;;;5054168;28;20452;-65
2023/05/06 08:37:41;;;;;;;7.70;6.10;;;;;20.20;98711.00;;;;5054118;28;20048;-65
2023/05/06 08:40:17;;;;;;;6.50;4.88;;;;;20.20;98710.00;;;;5052269;28;20391;-65
2023/05/06 08:42:48;;;;;;;7.45;5.00;;;;;20.20;98715.00;;;;5052884;28;20056;-64
2023/05/06 08:45:18;;;;;;;6.85;4.85;;;;;20.20;98712.00;;;;5053190;28;20037;-64
2023/05/06 08:47:47;;;;;;;5.22;3.83;;;;;20.20;98713.00;;;;5053103;28;20555;-65
2023/05/06 08:50:14;;;;;;;4.47;3.90;;;;;20.30;98711.00;;;;5052061;28;20491;-63
2023/05/06 08:52:41;;;;;;;7.50;4.32;;;;;20.50;98708.00;;;;5053464;28;20041;-64
2023/05/06 08:55:08;;;;;;;6.20;4.55;;;;;20.50;98706.00;;;;5053786;28;20454;-66
2023/05/06 08:57:36;;;;;;;3.63;2.70;;;;;20.60;98704.00;;;;5052712;28;20049;-63
2023/05/06 09:00:03;;;;;;;6.20;2.95;;;;;20.60;98696.00;;;;5052313;28;20048;-63
2023/05/06 09:02:30;;;;;;;4.22;2.75;;;;;20.70;98702.00;;;;5053580;28;20047;-63
2023/05/06 09:04:58;;;;;;;6.43;3.72;;;;;20.90;98700.00;;;;5052230;28;20055;-63
2023/05/06 09:07:25;;;;;;;5.68;3.70;;;;;21.00;98699.00;;;;5053555;28;20099;-62
2023/05/06 09:09:51;;;;;;;4.68;2.25;;;;;21.30;98698.00;;;;5052154;28;20044;-65
2023/05/06 09:12:18;;;;;;;3.85;2.17;;;;;21.50;98691.00;;;;5053681;28;20560;-66
2023/05/06 09:14:48;;;;;;;5.13;3.67;;;;;21.50;98691.00;;;;5053895;28;20095;-65
2023/05/06 09:17:22;;;;;;;2.13;1.58;;;;;21.70;98683.00;;;;5053550;28;20537;-66
2023/05/06 09:19:51;;;;;;;3.22;1.80;;;;;21.80;98692.00;;;;5053180;28;20048;-66
2023/05/06 09:22:22;;;;;;;1.52;1.40;;;;;21.90;98688.00;;;;5053428;28;20095;-65
2023/05/06 09:24:55;;;;;;;1.30;1.20;;;;;22.00;98688.00;;;;5053611;28;20057;-65
2023/05/06 09:27:27;;;;;;;2.28;0.90;;;;;22.00;98691.00;;;;5053416;28;20124;-65
2023/05/06 09:30:07;;;;;;;1.85;1.10;;;;;22.00;98686.00;;;;5055014;28;20068;-66
2023/05/06 09:32:34;;;;;;;2.42;1.20;;;;;22.00;98685.00;;;;5036208;28;20053;-65
2023/05/06 09:35:05;;;;;;;4.68;2.17;;;;;21.90;98689.00;;;;5054582;28;20049;-66
2023/05/06 09:37:31;;;;;;;3.05;2.42;;;;;22.00;98693.00;;;;5054683;28;20071;-69
2023/05/06 09:39:59;;;;;;;4.55;2.30;;;;;22.00;98690.00;;;;5052085;28;20045;-66
2023/05/06 09:42:28;;;;;;;3.70;1.98;;;;;22.10;98687.00;;;;5051981;28;20041;-65
2023/05/06 09:44:57;;;;;;;3.92;2.55;;;;;22.30;98685.00;;;;5052173;28;20048;-66
2023/05/06 09:47:33;;;;;;;3.10;1.90;;;;;22.30;98677.00;;;;5052356;28;20132;-64
2023/05/06 09:50:06;;;;;;;1.80;1.60;;;;;22.20;98680.00;;;;5052172;28;20112;-64
2023/05/06 09:52:32;;;;;;;2.13;1.60;;;;;22.30;98672.00;;;;5051049;28;20049;-64
2023/05/06 09:55:00;;;;;;;3.22;1.67;;;;;22.30;98669.00;;;;5052431;28;20053;-65
2023/05/06 09:57:29;;;;;;;2.30;1.92;;;;;22.70;98678.00;;;;5052939;28;20044;-64
2023/05/06 09:59:56;;;;;;;3.78;2.03;;;;;22.70;98670.00;;;;5051064;28;20045;-64
2023/05/06 10:02:25;;;;;;;7.90;1.88;;;;;22.60;98672.00;;;;5051672;28;20037;-64
2023/05/06 10:04:54;;;;;;;2.35;1.35;;;;;22.60;98673.00;;;;5051280;28;20049;-64
2023/05/06 10:07:22;;;;;;;1.45;1.35;;;;;22.70;98673.00;;;;5052539;28;20052;-67
2023/05/06 10:09:50;;;;;;;6.85;2.33;;;;;22.80;98682.00;;;;5051463;28;20048;-66
2023/05/06 10:12:18;;;;;;;6.75;1.60;;;;;23.00;98671.00;;;;5051331;28;20056;-67
2023/05/06 10:14:46;;;;;;;2.60;1.45;;;;;22.90;98677.00;;;;5052510;28;20045;-67
2023/05/06 10:17:13;;;;;;;2.58;1.40;;;;;22.90;98673.00;;;;5052234;28;20045;-66
2023/05/06 10:19:43;;;;;;;3.85;1.77;;;;;22.90;98674.00;;;;5051964;28;20041;-67
2023/05/06 10:22:41;;;;;;;2.78;1.67;;;;;23.10;98665.00;;;;5051178;28;20406;-67
2023/05/06 10:25:24;;;;;;;2.83;2.10;;;;;23.20;98673.00;;;;5052381;28;20045;-66
2023/05/06 10:27:51;;;;;;;3.17;1.83;;;;;22.90;98675.00;;;;5051520;28;20041;-66
2023/05/06 10:30:19;;;;;;;2.90;1.65;;;;;23.00;98665.00;;;;5034186;28;20170;-66
2023/05/06 10:32:46;;;;;;;7.07;2.63;;;;;23.20;98661.00;;;;5050944;28;20056;-67
2023/05/06 10:35:21;;;;;;;3.47;2.20;;;;;23.50;98654.00;;;;5050812;28;20041;-66
2023/05/06 10:37:50;;;;;;;3.60;1.90;;;;;23.70;98649.00;;;;5034422;28;20049;-66
2023/05/06 10:40:16;;;;;;;2.25;1.70;;;;;23.80;98654.00;;;;5050481;28;20045;-66
2023/05/06 10:42:43;;;;;;;2.05;1.65;;;;;23.70;98649.00;;;;5050484;28;20053;-65
2023/05/06 10:45:10;;;;;;;3.58;1.98;;;;;23.70;98644.00;;;;5052430;28;20441;-66
2023/05/06 10:47:54;;;;;;;5.00;2.80;;;;;23.90;98650.00;;;;5050943;28;20068;-66
2023/05/06 10:50:25;;;;;;;3.25;2.15;;;;;23.90;98651.00;;;;5052315;28;20052;-66
2023/05/06 10:52:54;;;;;;;2.22;1.90;;;;;23.90;98644.00;;;;5052282;28;20088;-66
2023/05/06 10:55:36;;;;;;;3.70;2.72;;;;;23.90;98650.00;;;;5052152;28;20102;-67
2023/05/06 10:58:17;;;;;;;2.28;1.95;;;;;23.80;98634.00;;;;5050749;28;20059;-66
2023/05/06 11:00:56;;;;;;;5.60;3.90;;;;;23.70;98637.00;;;;5052117;28;20041;-66
2023/05/06 11:03:23;;;;;;;4.05;2.70;;;;;23.70;98642.00;;;;5053971;28;20041;-66
2023/05/06 11:05:51;;;;;;;4.68;2.60;;;;;23.80;98642.00;;;;5054841;28;20409;-66
2023/05/06 11:08:22;;;;;;;3.13;2.40;;;;;23.80;98643.00;;;;5055849;28;20041;-66
2023/05/06 11:10:48;;;;;;;2.38;2.10;;;;;23.90;98642.00;;;;5054427;28;20041;-66
2023/05/06 11:13:26;;;;;;;3.88;2.42;;;;;24.00;98632.00;;;;5055747;28;20417;-66
2023/05/06 11:15:56;;;;;;;3.65;2.90;;;;;24.00;98634.00;;;;5054527;28;20075;-66
2023/05/06 11:18:26;;;;;;;2.85;2.45;;;;;24.00;98637.00;;;;5055433;28;20052;-66
2023/05/06 11:21:04;;;;;;;4.32;2.60;;;;;23.90;98630.00;;;;5053773;28;20494;-66
2023/05/06 11:23:45;;;;;;;3.25;2.60;;;;;23.70;98626.00;;;;5055368;28;20126;-63
2023/05/06 11:26:13;;;;;;;3.95;2.30;;;;;23.70;98628.00;;;;5055534;28;20498;-64
2023/05/06 11:28:42;;;;;;;3.95;2.45;;;;;23.80;98626.00;;;;5054864;28;20418;-63
2023/05/06 11:31:11;;;;;;;3.92;3.05;;;;;24.00;98627.00;;;;5055237;28;20037;-63
2023/05/06 11:33:45;;;;;;;3.47;2.63;;;;;24.20;98622.00;;;;5053796;28;20406;-63
2023/05/06 11:36:16;;;;;;;3.05;2.67;;;;;24.30;98620.00;;;;5053882;28;20139;-64
2023/05/06 11:38:44;;;;;;;3.13;2.45;;;;;24.40;98626.00;;;;5054918;28;20099;-63
2023/05/06 11:41:11;;;;;;;3.25;2.60;;;;;24.60;98627.00;;;;5053933;28;20044;-63
2023/05/06 11:43:38;;;;;;;3.55;2.40;;;;;24.60;98627.00;;;;5055042;28;20041;-63
2023/05/06 11:46:05;;;;;;;3.10;2.40;;;;;24.40;98617.00;;;;5054970;28;20051;-64
2023/05/06 11:48:31;;;;;;;3.83;3.38;;;;;24.60;98618.00;;;;5055030;28;20048;-63
2023/05/06 11:50:59;;;;;;;2.97;2.70;;;;;24.80;98615.00;;;;5054631;28;20076;-63
2023/05/06 11:53:25;;;;;;;2.42;2.03;;;;;25.10;98615.00;;;;5053460;28;20048;-63
2023/05/06 11:55:53;;;;;;;2.83;2.13;;;;;25.30;98611.00;;;;5054767;28;20056;-63
2023/05/06 11:58:27;;;;;;;2.03;1.80;;;;;25.50;98621.00;;;;5053309;28;20045;-62
2023/05/06 12:00:55;;;;;;;6.40;3.28;;;;;25.70;98634.00;;;;5053271;28;20409;-63
2023/05/06 12:03:23;;;;;;;2.55;2.08;;;;;25.60;98617.00;;;;5053588;28;20060;-63
2023/05/06 12:05:51;;;;;;;4.05;3.20;;;;;25.60;98622.00;;;;5054497;28;20049;-63
2023/05/06 12:08:25;;;;;;;3.70;2.42;;;;;25.30;98624.00;;;;5054635;28;20041;-63
2023/05/06 12:11:05;;;;;;;2.88;2.00;;;;;25.10;98617.00;;;;5054502;28;20045;-62
2023/05/06 12:13:35;;;;;;;3.53;1.95;;;;;24.90;98611.00;;;;5053342;28;20045;-63
2023/05/06 12:16:03;;;;;;;4.40;3.42;;;;;24.90;98616.00;;;;5061265;28;20061;-63
2023/05/06 12:18:29;;;;;;;3.15;2.38;;;;;25.00;98621.00;;;;5074277;28;20049;-63